createdAt,value
2018-06-20T00:02:15.720Z,8.47
2018-06-20T00:04:50.382Z,8.20
2018-06-20T00:07:25.112Z,9.10
2018-06-20T00:09:59.725Z,9.33
2018-06-20T00:12:34.543Z,8.33
2018-06-20T00:15:09.172Z,8.23
2018-06-20T00:17:43.788Z,8.77
2018-06-20T00:20:18.352Z,9.00
2018-06-20T00:22:52.827Z,8.43
2018-06-20T00:25:27.326Z,9.23
2018-06-20T00:28:01.611Z,8.33
2018-06-20T00:30:36.037Z,8.13
2018-06-20T00:33:10.528Z,9.40
2018-06-20T00:35:45.018Z,9.03
2018-06-20T00:38:19.665Z,9.83
2018-06-20T00:40:54.208Z,9.77
2018-06-20T00:43:30.443Z,10.20
2018-06-20T00:46:05.905Z,10.50
2018-06-20T00:48:40.821Z,10.83
2018-06-20T00:51:15.217Z,9.80
2018-06-20T00:53:49.616Z,9.97
2018-06-20T00:56:26.172Z,10.80
2018-06-20T00:59:00.669Z,10.00
2018-06-20T01:01:35.272Z,10.70
2018-06-20T01:04:09.928Z,9.77
2018-06-20T01:06:44.477Z,11.50
2018-06-20T01:09:19.127Z,12.03
2018-06-20T01:11:57.338Z,11.67
2018-06-20T01:14:31.765Z,11.47
2018-06-20T01:17:06.660Z,10.27
2018-06-20T01:19:41.333Z,10.60
2018-06-20T01:22:15.945Z,10.03
2018-06-20T01:24:50.684Z,10.50
2018-06-20T01:27:25.361Z,10.33
2018-06-20T01:29:59.849Z,10.43
2018-06-20T01:32:34.528Z,11.60
2018-06-20T01:35:09.008Z,11.43
2018-06-20T01:37:43.615Z,12.07
2018-06-20T01:40:18.144Z,11.10
2018-06-20T01:42:52.869Z,9.97
2018-06-20T01:45:27.508Z,11.47
2018-06-20T01:48:02.284Z,10.43
2018-06-20T01:50:37.016Z,9.97
2018-06-20T01:53:11.570Z,10.17
2018-06-20T01:55:46.072Z,10.90
2018-06-20T01:58:21.208Z,10.43
2018-06-20T02:00:55.639Z,10.33
2018-06-20T02:03:30.304Z,10.40
2018-06-20T02:06:04.896Z,10.80
2018-06-20T02:08:39.553Z,11.37
2018-06-20T02:11:14.037Z,9.43
2018-06-20T02:13:48.348Z,9.73
2018-06-20T02:16:22.948Z,9.97
2018-06-20T02:18:57.626Z,9.43
2018-06-20T02:21:32.204Z,9.57
2018-06-20T02:24:06.747Z,9.33
2018-06-20T02:26:41.237Z,9.90
2018-06-20T02:29:15.696Z,9.03
2018-06-20T02:31:50.220Z,9.87
2018-06-20T02:34:24.926Z,10.07
2018-06-20T02:36:59.379Z,10.13
2018-06-20T02:39:33.957Z,10.47
2018-06-20T02:42:08.616Z,9.93
2018-06-20T02:44:43.433Z,9.30
2018-06-20T02:47:18.010Z,9.93
2018-06-20T02:49:52.459Z,11.17
2018-06-20T02:52:27.009Z,10.53
2018-06-20T02:55:01.765Z,9.63
2018-06-20T02:57:36.206Z,10.40
2018-06-20T03:00:11.297Z,10.90
2018-06-20T03:02:46.252Z,9.43
2018-06-20T03:05:20.668Z,10.23
2018-06-20T03:07:54.955Z,10.00
2018-06-20T03:10:29.364Z,10.67
2018-06-20T03:13:03.753Z,9.33
2018-06-20T03:15:38.071Z,10.10
2018-06-20T03:18:12.300Z,10.57
2018-06-20T03:20:46.692Z,10.70
2018-06-20T03:23:20.996Z,10.37
2018-06-20T03:25:55.247Z,9.97
2018-06-20T03:28:29.734Z,9.23
2018-06-20T03:31:04.092Z,9.70
2018-06-20T03:33:38.515Z,9.07
2018-06-20T03:36:13.024Z,9.53
2018-06-20T03:38:47.363Z,9.70
2018-06-20T03:41:21.775Z,9.80
2018-06-20T03:43:56.356Z,9.57
2018-06-20T03:46:30.826Z,10.00
2018-06-20T03:49:05.283Z,9.87
2018-06-20T03:51:39.587Z,9.57
2018-06-20T03:54:13.991Z,10.07
2018-06-20T03:57:02.140Z,9.87
2018-06-20T03:59:46.856Z,9.93
2018-06-20T04:02:26.866Z,9.47
2018-06-20T04:05:20.173Z,10.90
2018-06-20T04:07:54.601Z,10.60
2018-06-20T04:10:29.319Z,9.83
2018-06-20T04:13:13.663Z,9.80
2018-06-20T04:21:46.191Z,9.93
2018-06-20T04:24:20.567Z,10.00
2018-06-20T04:26:54.823Z,9.80
2018-06-20T04:29:29.095Z,8.97
2018-06-20T04:32:03.483Z,8.90
2018-06-20T04:34:37.747Z,8.77
2018-06-20T04:37:12.064Z,9.37
2018-06-20T04:39:47.779Z,9.17
2018-06-20T04:42:27.012Z,9.40
2018-06-20T04:45:12.660Z,9.27
2018-06-20T04:47:47.344Z,9.30
2018-06-20T04:50:21.989Z,9.83
2018-06-20T04:52:56.588Z,10.00
2018-06-20T04:55:31.150Z,9.57
2018-06-20T04:58:05.591Z,9.17
2018-06-20T05:00:40.165Z,8.23
2018-06-20T05:03:15.057Z,9.33
2018-06-20T05:05:49.676Z,9.13
2018-06-20T05:08:24.082Z,10.00
2018-06-20T05:10:58.545Z,9.27
2018-06-20T05:13:33.103Z,9.70
2018-06-20T05:16:07.690Z,8.80
2018-06-20T05:18:42.252Z,9.23
2018-06-20T05:21:16.842Z,8.70
2018-06-20T05:23:51.216Z,9.23
2018-06-20T05:26:25.667Z,8.63
2018-06-20T05:29:00.226Z,8.83
2018-06-20T05:31:34.925Z,9.63
2018-06-20T05:34:09.479Z,8.60
2018-06-20T05:36:44.160Z,9.50
2018-06-20T05:39:18.704Z,9.83
2018-06-20T05:41:53.263Z,10.00
2018-06-20T05:44:27.640Z,11.87
2018-06-20T05:47:02.009Z,10.43
2018-06-20T05:49:36.598Z,10.40
2018-06-20T05:52:11.084Z,10.73
2018-06-20T05:54:45.588Z,10.07
2018-06-20T05:57:20.043Z,10.20
2018-06-20T05:59:54.635Z,9.50
2018-06-20T06:02:29.097Z,9.87
2018-06-20T06:05:03.709Z,10.43
2018-06-20T06:07:38.182Z,10.67
2018-06-20T06:10:15.753Z,9.57
2018-06-20T06:12:50.216Z,9.27
2018-06-20T06:15:24.808Z,9.90
2018-06-20T06:17:59.404Z,10.20
2018-06-20T06:20:34.077Z,9.70
2018-06-20T06:23:08.645Z,10.00
2018-06-20T06:25:43.127Z,10.23
2018-06-20T06:28:17.592Z,9.23
2018-06-20T06:30:52.101Z,9.70
2018-06-20T06:33:26.559Z,9.53
2018-06-20T06:36:01.072Z,9.37
2018-06-20T06:38:35.585Z,9.27
2018-06-20T06:41:10.081Z,9.27
2018-06-20T06:43:44.684Z,8.83
2018-06-20T06:46:19.149Z,8.27
2018-06-20T06:49:01.863Z,8.23
2018-06-20T06:51:41.554Z,8.00
2018-06-20T06:54:16.016Z,8.03
2018-06-20T06:56:50.475Z,8.50
2018-06-20T06:59:24.913Z,9.23
2018-06-20T07:01:59.548Z,8.27
2018-06-20T07:04:34.100Z,7.13
2018-06-20T07:07:08.747Z,7.17
2018-06-20T07:09:43.245Z,7.70
2018-06-20T07:12:17.803Z,8.00
2018-06-20T07:14:52.336Z,7.13
2018-06-20T07:17:26.981Z,6.77
2018-06-20T07:20:01.550Z,6.57
2018-06-20T07:22:36.121Z,6.80
2018-06-20T07:25:10.680Z,7.43
2018-06-20T07:27:45.140Z,7.00
2018-06-20T07:30:19.564Z,6.40
2018-06-20T07:32:53.921Z,6.57
2018-06-20T07:35:28.337Z,5.93
2018-06-20T07:38:02.989Z,6.00
2018-06-20T07:40:37.653Z,5.20
2018-06-20T07:43:12.258Z,5.43
2018-06-20T07:45:46.664Z,4.60
2018-06-20T07:48:21.268Z,4.70
2018-06-20T07:50:55.941Z,3.70
2018-06-20T07:53:30.368Z,3.50
2018-06-20T07:56:04.798Z,4.20
2018-06-20T07:58:44.568Z,3.57
2018-06-20T08:01:35.777Z,3.10
2018-06-20T08:04:15.620Z,3.63
2018-06-20T08:06:55.487Z,3.33
2018-06-20T08:09:49.580Z,3.83
2018-06-20T08:15:28.697Z,3.27
2018-06-20T08:18:08.493Z,3.67
2018-06-20T08:21:07.681Z,4.20
2018-06-20T08:23:42.199Z,3.70
2018-06-20T08:26:16.656Z,3.43
2018-06-20T08:28:51.073Z,3.70
2018-06-20T08:31:25.668Z,3.57
2018-06-20T08:34:00.240Z,3.70
2018-06-20T08:36:34.613Z,4.20
2018-06-20T08:39:09.793Z,4.00
2018-06-20T08:41:44.242Z,4.30
2018-06-20T08:44:18.623Z,4.87
2018-06-20T08:46:53.116Z,4.57
2018-06-20T08:49:27.488Z,4.27
2018-06-20T08:52:01.858Z,4.40
2018-06-20T08:54:36.849Z,5.07
2018-06-20T08:57:11.360Z,4.33
2018-06-20T08:59:45.929Z,4.23
2018-06-20T09:02:20.812Z,4.93
2018-06-20T09:05:13.676Z,3.97
2018-06-20T09:07:53.585Z,4.83
2018-06-20T09:10:33.376Z,4.90
2018-06-20T09:13:13.236Z,4.57
2018-06-20T09:15:53.129Z,5.30
2018-06-20T09:18:32.991Z,5.63
2018-06-20T09:21:07.619Z,4.90
2018-06-20T09:23:41.992Z,4.87
2018-06-20T09:26:16.425Z,5.23
2018-06-20T09:28:50.939Z,4.83
2018-06-20T09:31:25.344Z,5.00
2018-06-20T09:33:59.812Z,4.83
2018-06-20T09:36:34.293Z,5.33
2018-06-20T09:39:08.641Z,5.30
2018-06-20T09:41:43.028Z,4.17
2018-06-20T09:44:17.564Z,3.60
2018-06-20T09:46:51.963Z,3.57
2018-06-20T09:49:26.277Z,3.63
2018-06-20T09:52:00.721Z,3.90
2018-06-20T09:54:35.104Z,3.50
2018-06-20T09:57:09.796Z,3.70
2018-06-20T09:59:49.505Z,3.63
2018-06-20T10:02:29.341Z,3.80
2018-06-20T10:05:09.287Z,3.20
2018-06-20T10:07:49.148Z,3.17
2018-06-20T10:10:29.278Z,2.50
2018-06-20T10:13:08.898Z,2.60
2018-06-20T10:15:43.306Z,2.67
2018-06-20T10:18:17.691Z,2.47
2018-06-20T10:20:52.027Z,2.40
2018-06-20T10:23:26.403Z,2.50
2018-06-20T10:26:00.791Z,3.03
2018-06-20T10:28:35.187Z,2.70
2018-06-20T10:31:09.671Z,2.73
2018-06-20T10:33:44.079Z,2.87
2018-06-20T10:36:18.419Z,2.73
2018-06-20T10:38:52.775Z,2.23
2018-06-20T10:47:36.508Z,2.60
2018-06-20T10:53:11.024Z,2.77
2018-06-20T10:55:47.320Z,2.30
2018-06-20T11:01:39.648Z,1.93
2018-06-20T11:04:38.563Z,2.20
2018-06-20T11:07:18.375Z,2.10
2018-06-20T11:09:58.120Z,2.40
2018-06-20T11:12:37.989Z,2.40
2018-06-20T11:15:12.603Z,2.33
2018-06-20T11:17:46.929Z,2.20
2018-06-20T11:20:26.723Z,2.37
2018-06-20T11:23:01.196Z,2.00
2018-06-20T11:25:35.575Z,2.10
2018-06-20T11:28:13.240Z,1.93
2018-06-20T11:30:47.851Z,1.87
2018-06-20T11:33:29.988Z,2.00
2018-06-20T11:36:14.427Z,2.20
2018-06-20T11:38:48.843Z,1.93
2018-06-20T11:41:23.395Z,1.77
2018-06-20T11:43:57.767Z,2.00
2018-06-20T11:46:37.598Z,1.80
2018-06-20T11:49:12.173Z,1.50
2018-06-20T11:51:46.590Z,1.60
2018-06-20T11:54:20.948Z,1.70
2018-06-20T11:56:55.391Z,1.80
2018-06-20T11:59:35.204Z,1.40
2018-06-20T12:02:15.035Z,1.80
2018-06-20T12:04:54.872Z,1.70
2018-06-20T12:07:34.836Z,1.50
2018-06-20T12:10:14.672Z,1.93
2018-06-20T12:12:54.192Z,2.20
2018-06-20T12:15:34.074Z,2.10
2018-06-20T12:18:13.793Z,2.40
2018-06-20T12:20:53.568Z,1.90
2018-06-20T12:23:33.327Z,1.93
2018-06-20T12:26:13.024Z,2.40
2018-06-20T12:28:52.883Z,2.00
2018-06-20T12:31:32.534Z,1.70
2018-06-20T12:34:12.491Z,2.40
2018-06-20T12:36:52.224Z,1.90
2018-06-20T12:39:25.759Z,2.10
2018-06-20T12:42:05.539Z,1.97
2018-06-20T12:44:45.299Z,2.43
2018-06-20T12:47:24.398Z,2.10
2018-06-20T12:50:01.179Z,1.90
2018-06-20T12:52:35.593Z,1.73
2018-06-20T12:55:10.089Z,1.80
2018-06-20T12:57:44.444Z,2.00
2018-06-20T13:00:18.815Z,1.60
2018-06-20T13:02:53.148Z,1.80
2018-06-20T13:05:27.604Z,1.47
2018-06-20T13:08:02.053Z,1.63
2018-06-20T13:10:36.436Z,1.60
2018-06-20T13:13:10.940Z,1.47
2018-06-20T13:15:45.316Z,2.00
2018-06-20T13:18:19.688Z,1.90
2018-06-20T13:20:54.120Z,1.67
2018-06-20T13:23:28.620Z,1.70
2018-06-20T13:26:03.068Z,1.93
2018-06-20T13:28:37.649Z,1.93
2018-06-20T13:31:17.432Z,1.53
2018-06-20T13:33:57.311Z,1.60
2018-06-20T13:36:37.084Z,1.77
2018-06-20T13:39:16.884Z,1.50
2018-06-20T13:41:56.712Z,1.40
2018-06-20T13:44:31.112Z,1.27
2018-06-20T13:47:16.919Z,1.40
2018-06-20T13:52:51.287Z,1.27
2018-06-20T13:55:25.511Z,1.50
2018-06-20T13:57:59.889Z,1.10
2018-06-20T14:00:34.308Z,1.40
2018-06-20T14:03:08.728Z,0.90
2018-06-20T14:05:43.120Z,1.23
2018-06-20T14:08:17.547Z,1.07
2018-06-20T14:10:51.959Z,1.17
2018-06-20T14:13:26.302Z,1.30
2018-06-20T14:16:00.567Z,1.07
2018-06-20T14:18:34.759Z,1.00
2018-06-20T14:21:14.569Z,0.97
2018-06-20T14:23:49.096Z,1.30
2018-06-20T14:26:23.599Z,1.50
2018-06-20T14:28:57.891Z,1.30
2018-06-20T14:31:37.653Z,1.40
2018-06-20T14:34:17.575Z,1.20
2018-06-20T14:36:57.315Z,1.47
2018-06-20T14:39:37.264Z,1.17
2018-06-20T14:42:17.102Z,1.50
2018-06-20T14:44:55.611Z,1.33
2018-06-20T14:47:30.105Z,1.80
2018-06-20T14:50:04.664Z,1.53
2018-06-20T14:52:39.067Z,1.30
2018-06-20T14:55:13.279Z,1.00
2018-06-20T14:57:47.679Z,1.20
2018-06-20T15:00:22.052Z,1.43
2018-06-20T15:02:56.448Z,1.23
2018-06-20T15:05:44.724Z,1.10
2018-06-20T15:08:19.104Z,1.03
2018-06-20T15:10:53.560Z,1.00
2018-06-20T15:13:28.007Z,1.00
2018-06-20T15:16:07.927Z,1.20
2018-06-20T15:18:42.160Z,1.27
2018-06-20T15:21:16.395Z,1.20
2018-06-20T15:23:50.591Z,1.27
2018-06-20T15:26:30.422Z,1.17
2018-06-20T15:29:10.915Z,1.00
2018-06-20T15:31:50.618Z,1.10
2018-06-20T15:34:30.326Z,1.30
2018-06-20T15:37:11.143Z,1.20
2018-06-20T15:39:45.523Z,1.30
2018-06-20T15:42:19.727Z,1.10
2018-06-20T15:44:54.204Z,1.10
2018-06-20T15:47:28.595Z,1.50
2018-06-20T15:50:02.998Z,1.47
2018-06-20T15:52:37.391Z,1.20
2018-06-20T15:55:11.871Z,1.30
2018-06-20T15:57:46.148Z,1.50
2018-06-20T16:00:20.489Z,1.10
2018-06-20T16:02:54.875Z,1.37
2018-06-20T16:05:29.192Z,1.20
2018-06-20T16:08:03.587Z,1.27
2018-06-20T16:10:37.967Z,1.00
2018-06-20T16:13:12.307Z,0.93
2018-06-20T16:15:46.704Z,1.20
2018-06-20T16:18:21.091Z,1.63
2018-06-20T16:21:01.025Z,1.23
2018-06-20T16:24:43.518Z,1.30
2018-06-20T16:27:23.305Z,1.10
2018-06-20T16:30:03.027Z,1.20
2018-06-20T16:32:37.544Z,1.10
2018-06-20T16:35:11.951Z,1.17
2018-06-20T16:37:46.352Z,1.40
2018-06-20T16:40:20.763Z,1.20
2018-06-20T16:42:55.227Z,0.87
2018-06-20T16:45:29.612Z,1.30
2018-06-20T16:48:03.883Z,1.50
2018-06-20T16:50:38.271Z,1.20
2018-06-20T16:53:12.779Z,1.30
2018-06-20T16:55:47.064Z,1.57
2018-06-20T16:58:21.387Z,1.40
2018-06-20T17:00:59.846Z,1.90
2018-06-20T17:03:34.204Z,1.50
2018-06-20T17:06:08.612Z,1.60
2018-06-20T17:08:42.800Z,1.60
2018-06-20T17:11:17.035Z,1.70
2018-06-20T17:13:56.503Z,1.10
2018-06-20T17:16:36.233Z,1.57
2018-06-20T17:19:16.168Z,1.30
2018-06-20T17:21:55.897Z,1.40
2018-06-20T17:24:35.782Z,1.20
2018-06-20T17:27:10.140Z,1.70
2018-06-20T17:29:44.496Z,1.40
2018-06-20T17:32:18.789Z,1.20
2018-06-20T17:34:53.088Z,1.23
2018-06-20T17:37:27.421Z,1.43
2018-06-20T17:40:01.792Z,1.50
2018-06-20T17:42:36.251Z,1.37
2018-06-20T17:45:10.502Z,1.80
2018-06-20T17:47:44.732Z,1.73
2018-06-20T17:50:19.043Z,1.50
2018-06-20T17:52:53.443Z,1.70
2018-06-20T17:55:27.600Z,1.10
2018-06-20T17:58:01.924Z,1.43
2018-06-20T18:00:41.739Z,1.20
2018-06-20T18:03:16.073Z,1.40
2018-06-20T18:05:55.911Z,1.47
2018-06-20T18:08:35.705Z,1.20
2018-06-20T18:11:15.828Z,1.40
2018-06-20T18:13:55.536Z,1.37
2018-06-20T18:16:35.439Z,1.67
2018-06-20T18:19:09.771Z,1.40
2018-06-20T18:21:44.065Z,1.60
2018-06-20T18:24:18.379Z,1.80
2018-06-20T18:26:52.787Z,1.30
2018-06-20T18:29:27.015Z,1.00
2018-06-20T18:32:01.303Z,1.60
2018-06-20T18:34:40.667Z,1.30
2018-06-20T18:37:19.794Z,1.93
2018-06-20T18:40:09.516Z,1.33
2018-06-20T18:42:44.071Z,1.37
2018-06-20T18:45:18.424Z,1.87
2018-06-20T18:47:58.179Z,1.37
2018-06-20T18:50:32.448Z,1.13
2018-06-20T18:53:06.680Z,1.60
2018-06-20T18:55:41.083Z,1.47
2018-06-20T18:58:20.774Z,1.50
2018-06-20T19:01:00.627Z,1.70
2018-06-20T19:03:40.453Z,1.57
2018-06-20T19:06:20.458Z,1.60
2018-06-20T19:08:57.591Z,1.77
2018-06-20T19:11:31.887Z,1.80
2018-06-20T19:14:06.231Z,1.90
2018-06-20T19:16:40.529Z,1.73
2018-06-20T19:19:14.743Z,2.00
2018-06-20T19:21:49.175Z,1.80
2018-06-20T19:24:23.586Z,1.97
2018-06-20T19:26:58.000Z,1.63
2018-06-20T19:29:32.431Z,2.30
2018-06-20T19:32:06.969Z,1.90
2018-06-20T19:34:41.393Z,2.30
2018-06-20T19:37:15.744Z,1.83
2018-06-20T19:39:52.324Z,1.70
2018-06-20T19:42:26.777Z,2.10
2018-06-20T19:45:01.047Z,2.00
2018-06-20T19:47:35.459Z,2.00
2018-06-20T19:50:09.743Z,2.23
2018-06-20T19:52:44.136Z,2.33
2018-06-20T19:55:18.535Z,1.80
2018-06-20T19:57:52.915Z,2.23
2018-06-20T20:00:27.227Z,2.43
2018-06-20T20:03:01.599Z,1.93
2018-06-20T20:05:36.004Z,2.37
2018-06-20T20:08:10.395Z,2.60
2018-06-20T20:10:44.807Z,2.50
2018-06-20T20:13:19.031Z,2.70
2018-06-20T20:15:53.344Z,2.63
2018-06-20T20:18:27.679Z,2.60
2018-06-20T20:21:01.987Z,2.70
2018-06-20T20:23:36.306Z,2.50
2018-06-20T20:26:10.518Z,3.00
2018-06-20T20:28:44.775Z,2.83
2018-06-20T20:31:19.199Z,2.87
2018-06-20T20:33:53.718Z,3.10
2018-06-20T20:36:27.979Z,2.87
2018-06-20T20:39:02.348Z,2.60
2018-06-20T20:41:36.691Z,2.67
2018-06-20T20:44:10.959Z,2.90
2018-06-20T20:46:45.423Z,2.87
2018-06-20T20:49:19.685Z,2.90
2018-06-20T20:51:54.023Z,3.10
2018-06-20T20:54:28.410Z,2.70
2018-06-20T20:57:02.847Z,2.60
2018-06-20T20:59:37.172Z,2.97
2018-06-20T21:02:11.478Z,2.73
2018-06-20T21:04:45.903Z,2.83
2018-06-20T21:07:20.322Z,3.00
2018-06-20T21:09:54.683Z,3.50
2018-06-20T21:12:29.096Z,2.90
2018-06-20T21:15:03.531Z,2.93
2018-06-20T21:17:38.031Z,2.83
2018-06-20T21:20:12.452Z,2.90
2018-06-20T21:22:46.712Z,2.43
2018-06-20T21:25:21.145Z,3.00
2018-06-20T21:27:55.534Z,3.23
2018-06-20T21:30:30.004Z,3.20
2018-06-20T21:33:04.361Z,3.17
2018-06-20T21:35:38.757Z,3.20
2018-06-20T21:38:13.119Z,3.23
2018-06-20T21:40:47.360Z,3.50
2018-06-20T21:43:21.800Z,3.50
2018-06-20T21:45:56.195Z,3.20
2018-06-20T21:48:30.580Z,3.47
2018-06-20T21:51:04.963Z,3.70
2018-06-20T21:53:39.152Z,3.03
2018-06-20T21:56:13.523Z,3.50
2018-06-20T21:58:47.799Z,3.37
2018-06-20T22:01:22.081Z,4.03
2018-06-20T22:03:56.475Z,3.87
2018-06-20T22:06:30.884Z,3.60
2018-06-20T22:09:07.766Z,3.83
2018-06-20T22:11:42.212Z,3.63
2018-06-20T22:14:16.697Z,3.93
2018-06-20T22:17:10.705Z,3.83
2018-06-20T22:19:45.252Z,4.07
2018-06-20T22:22:19.724Z,4.60
2018-06-20T22:24:54.207Z,5.13
2018-06-20T22:27:28.753Z,5.60
2018-06-20T22:30:03.220Z,6.27
2018-06-20T22:32:37.785Z,4.87
2018-06-20T22:35:13.193Z,4.63
2018-06-20T22:37:47.857Z,4.70
2018-06-20T22:40:22.480Z,4.53
2018-06-20T22:42:57.002Z,4.53
2018-06-20T22:45:31.392Z,4.30
2018-06-20T22:48:05.911Z,4.10
2018-06-20T22:50:40.344Z,4.47
2018-06-20T22:53:14.837Z,4.13
2018-06-20T22:55:49.440Z,4.33
2018-06-20T22:58:23.976Z,4.23
2018-06-20T23:00:58.858Z,4.90
2018-06-20T23:09:50.300Z,3.93
2018-06-20T23:12:25.891Z,4.67
2018-06-20T23:15:00.448Z,5.20
2018-06-20T23:17:35.044Z,4.80
2018-06-20T23:20:09.757Z,4.70
2018-06-20T23:22:44.416Z,4.30
2018-06-20T23:25:18.929Z,4.70
2018-06-20T23:27:53.332Z,4.33
2018-06-20T23:30:27.764Z,4.23
2018-06-20T23:33:02.309Z,4.10
2018-06-20T23:35:36.817Z,4.20
2018-06-20T23:38:11.201Z,4.80
2018-06-20T23:40:45.708Z,4.93
2018-06-20T23:43:20.324Z,4.93
2018-06-20T23:45:54.841Z,5.17
2018-06-20T23:48:29.331Z,5.07
2018-06-20T23:51:03.745Z,5.47
2018-06-20T23:53:38.336Z,5.07
2018-06-20T23:56:12.833Z,4.50
2018-06-20T23:58:47.343Z,4.57
